sensor_id;sensor_type;location;lat;lon;timestamp;P1;durP1;ratioP1;P2;durP2;ratioP2
46084;SDS011;31823;47.032;8.310;2023-05-29T00:01:12;10.73;;;5.45;;
46084;SDS011;31823;47.032;8.310;2023-05-29T00:03:37;10.38;;;4.88;;
46084;SDS011;31823;47.032;8.310;2023-05-29T00:06:03;11.82;;;5.05;;
46084;SDS011;31823;47.032;8.310;2023-05-29T00:08:30;9.80;;;5.85;;
46084;SDS011;31823;47.032;8.310;2023-05-29T00:10:56;7.95;;;4.82;;
46084;SDS011;31823;47.032;8.310;2023-05-29T00:13:22;9.45;;;5.32;;
46084;SDS011;31823;47.032;8.310;2023-05-29T00:15:47;9.10;;;5.45;;
46084;SDS011;31823;47.032;8.310;2023-05-29T00:18:13;8.73;;;5.60;;
46084;SDS011;31823;47.032;8.310;2023-05-29T00:20:39;9.65;;;5.15;;
46084;SDS011;31823;47.032;8.310;2023-05-29T00:23:04;8.02;;;5.32;;
46084;SDS011;31823;47.032;8.310;2023-05-29T00:25:31;8.88;;;6.32;;
46084;SDS011;31823;47.032;8.310;2023-05-29T00:27:57;8.45;;;5.32;;
46084;SDS011;31823;47.032;8.310;2023-05-29T00:30:23;10.60;;;5.40;;
46084;SDS011;31823;47.032;8.310;2023-05-29T00:32:49;10.85;;;5.70;;
46084;SDS011;31823;47.032;8.310;2023-05-29T00:35:17;12.05;;;5.45;;
46084;SDS011;31823;47.032;8.310;2023-05-29T00:37:42;12.98;;;5.50;;
46084;SDS011;31823;47.032;8.310;2023-05-29T00:40:08;12.45;;;5.65;;
46084;SDS011;31823;47.032;8.310;2023-05-29T00:42:35;12.80;;;6.57;;
46084;SDS011;31823;47.032;8.310;2023-05-29T00:45:00;6.63;;;4.80;;
46084;SDS011;31823;47.032;8.310;2023-05-29T00:47:26;9.20;;;5.05;;
46084;SDS011;31823;47.032;8.310;2023-05-29T00:49:51;10.93;;;5.50;;
46084;SDS011;31823;47.032;8.310;2023-05-29T00:52:18;9.88;;;5.00;;
46084;SDS011;31823;47.032;8.310;2023-05-29T00:54:45;10.65;;;5.57;;
46084;SDS011;31823;47.032;8.310;2023-05-29T00:57:11;11.00;;;5.20;;
46084;SDS011;31823;47.032;8.310;2023-05-29T00:59:38;11.27;;;5.25;;
46084;SDS011;31823;47.032;8.310;2023-05-29T01:02:05;10.77;;;5.68;;
46084;SDS011;31823;47.032;8.310;2023-05-29T01:04:31;6.78;;;4.93;;
46084;SDS011;31823;47.032;8.310;2023-05-29T01:07:00;10.18;;;5.03;;
46084;SDS011;31823;47.032;8.310;2023-05-29T01:09:27;10.05;;;5.15;;
46084;SDS011;31823;47.032;8.310;2023-05-29T01:12:16;11.00;;;5.95;;
46084;SDS011;31823;47.032;8.310;2023-05-29T01:28:07;11.40;;;5.00;;
46084;SDS011;31823;47.032;8.310;2023-05-29T01:30:36;12.45;;;5.53;;
46084;SDS011;31823;47.032;8.310;2023-05-29T01:33:03;11.48;;;5.30;;
46084;SDS011;31823;47.032;8.310;2023-05-29T01:35:29;10.82;;;5.20;;
46084;SDS011;31823;47.032;8.310;2023-05-29T01:37:55;9.05;;;5.50;;
46084;SDS011;31823;47.032;8.310;2023-05-29T01:40:21;8.57;;;5.45;;
46084;SDS011;31823;47.032;8.310;2023-05-29T01:42:46;10.38;;;5.13;;
46084;SDS011;31823;47.032;8.310;2023-05-29T01:45:13;10.70;;;6.82;;
46084;SDS011;31823;47.032;8.310;2023-05-29T01:47:39;11.77;;;4.85;;
46084;SDS011;31823;47.032;8.310;2023-05-29T01:50:05;10.40;;;5.68;;
46084;SDS011;31823;47.032;8.310;2023-05-29T01:52:31;9.07;;;5.25;;
46084;SDS011;31823;47.032;8.310;2023-05-29T01:54:57;13.10;;;5.15;;
46084;SDS011;31823;47.032;8.310;2023-05-29T01:57:23;7.65;;;5.22;;
46084;SDS011;31823;47.032;8.310;2023-05-29T01:59:50;13.13;;;5.88;;
46084;SDS011;31823;47.032;8.310;2023-05-29T02:02:16;9.13;;;5.35;;
46084;SDS011;31823;47.032;8.310;2023-05-29T02:04:41;16.05;;;6.50;;
46084;SDS011;31823;47.032;8.310;2023-05-29T02:07:07;9.85;;;5.80;;
46084;SDS011;31823;47.032;8.310;2023-05-29T02:09:34;7.57;;;5.25;;
46084;SDS011;31823;47.032;8.310;2023-05-29T02:12:00;10.18;;;5.97;;
46084;SDS011;31823;47.032;8.310;2023-05-29T02:14:26;9.80;;;5.30;;
46084;SDS011;31823;47.032;8.310;2023-05-29T02:16:52;11.40;;;5.65;;
46084;SDS011;31823;47.032;8.310;2023-05-29T02:19:18;10.27;;;5.55;;
46084;SDS011;31823;47.032;8.310;2023-05-29T02:21:44;8.75;;;5.38;;
46084;SDS011;31823;47.032;8.310;2023-05-29T02:24:11;12.55;;;6.05;;
46084;SDS011;31823;47.032;8.310;2023-05-29T02:26:37;10.93;;;6.32;;
46084;SDS011;31823;47.032;8.310;2023-05-29T02:29:02;13.70;;;5.15;;
46084;SDS011;31823;47.032;8.310;2023-05-29T02:31:31;8.57;;;5.43;;
46084;SDS011;31823;47.032;8.310;2023-05-29T02:33:57;12.27;;;6.07;;
46084;SDS011;31823;47.032;8.310;2023-05-29T02:36:22;9.90;;;5.57;;
46084;SDS011;31823;47.032;8.310;2023-05-29T02:38:48;11.63;;;6.00;;
46084;SDS011;31823;47.032;8.310;2023-05-29T02:41:13;9.82;;;5.93;;
46084;SDS011;31823;47.032;8.310;2023-05-29T02:43:39;14.57;;;6.70;;
46084;SDS011;31823;47.032;8.310;2023-05-29T02:46:04;8.85;;;4.93;;
46084;SDS011;31823;47.032;8.310;2023-05-29T02:48:30;12.85;;;6.00;;
46084;SDS011;31823;47.032;8.310;2023-05-29T02:50:56;10.70;;;5.65;;
46084;SDS011;31823;47.032;8.310;2023-05-29T02:53:21;10.27;;;6.40;;
46084;SDS011;31823;47.032;8.310;2023-05-29T02:55:48;8.77;;;5.30;;
46084;SDS011;31823;47.032;8.310;2023-05-29T02:58:14;8.77;;;5.82;;
46084;SDS011;31823;47.032;8.310;2023-05-29T03:00:41;7.45;;;5.18;;
46084;SDS011;31823;47.032;8.310;2023-05-29T03:03:07;8.80;;;5.65;;
46084;SDS011;31823;47.032;8.310;2023-05-29T03:05:32;14.02;;;5.88;;
46084;SDS011;31823;47.032;8.310;2023-05-29T03:07:58;14.35;;;6.80;;
46084;SDS011;31823;47.032;8.310;2023-05-29T03:10:23;12.15;;;6.45;;
46084;SDS011;31823;47.032;8.310;2023-05-29T03:12:49;10.45;;;6.10;;
46084;SDS011;31823;47.032;8.310;2023-05-29T03:15:16;12.18;;;5.75;;
46084;SDS011;31823;47.032;8.310;2023-05-29T03:17:41;8.63;;;5.82;;
46084;SDS011;31823;47.032;8.310;2023-05-29T03:20:07;11.95;;;6.85;;
46084;SDS011;31823;47.032;8.310;2023-05-29T03:22:34;10.30;;;6.22;;
46084;SDS011;31823;47.032;8.310;2023-05-29T03:25:01;11.50;;;6.70;;
46084;SDS011;31823;47.032;8.310;2023-05-29T03:27:27;12.73;;;6.45;;
46084;SDS011;31823;47.032;8.310;2023-05-29T03:29:54;15.63;;;6.85;;
46084;SDS011;31823;47.032;8.310;2023-05-29T03:32:20;8.93;;;6.07;;
46084;SDS011;31823;47.032;8.310;2023-05-29T03:34:45;13.35;;;6.78;;
46084;SDS011;31823;47.032;8.310;2023-05-29T03:37:12;14.48;;;6.40;;
46084;SDS011;31823;47.032;8.310;2023-05-29T03:39:38;15.23;;;7.10;;
46084;SDS011;31823;47.032;8.310;2023-05-29T03:42:04;11.05;;;5.80;;
46084;SDS011;31823;47.032;8.310;2023-05-29T03:44:29;15.60;;;5.85;;
46084;SDS011;31823;47.032;8.310;2023-05-29T03:46:55;11.73;;;6.68;;
46084;SDS011;31823;47.032;8.310;2023-05-29T03:49:20;10.38;;;5.93;;
46084;SDS011;31823;47.032;8.310;2023-05-29T03:51:46;12.38;;;6.30;;
46084;SDS011;31823;47.032;8.310;2023-05-29T03:54:11;10.98;;;6.25;;
46084;SDS011;31823;47.032;8.310;2023-05-29T03:56:37;12.43;;;6.82;;
46084;SDS011;31823;47.032;8.310;2023-05-29T03:59:02;9.65;;;5.88;;
46084;SDS011;31823;47.032;8.310;2023-05-29T04:01:28;10.82;;;6.70;;
46084;SDS011;31823;47.032;8.310;2023-05-29T04:03:54;11.27;;;7.03;;
46084;SDS011;31823;47.032;8.310;2023-05-29T04:06:20;15.93;;;6.40;;
46084;SDS011;31823;47.032;8.310;2023-05-29T04:08:46;12.68;;;6.93;;
46084;SDS011;31823;47.032;8.310;2023-05-29T04:11:12;11.25;;;6.60;;
46084;SDS011;31823;47.032;8.310;2023-05-29T04:13:39;13.05;;;6.25;;
46084;SDS011;31823;47.032;8.310;2023-05-29T04:16:05;16.13;;;6.45;;
46084;SDS011;31823;47.032;8.310;2023-05-29T04:18:31;11.48;;;6.93;;
46084;SDS011;31823;47.032;8.310;2023-05-29T04:20:56;12.40;;;6.47;;
46084;SDS011;31823;47.032;8.310;2023-05-29T04:23:22;11.18;;;6.28;;
46084;SDS011;31823;47.032;8.310;2023-05-29T04:25:47;12.27;;;6.75;;
46084;SDS011;31823;47.032;8.310;2023-05-29T04:28:16;11.95;;;6.10;;
46084;SDS011;31823;47.032;8.310;2023-05-29T04:30:42;13.25;;;7.38;;
46084;SDS011;31823;47.032;8.310;2023-05-29T04:33:07;11.52;;;6.43;;
46084;SDS011;31823;47.032;8.310;2023-05-29T04:35:34;10.25;;;6.95;;
46084;SDS011;31823;47.032;8.310;2023-05-29T04:38:00;10.48;;;6.32;;
46084;SDS011;31823;47.032;8.310;2023-05-29T04:40:26;9.38;;;6.63;;
46084;SDS011;31823;47.032;8.310;2023-05-29T04:42:51;11.48;;;6.38;;
46084;SDS011;31823;47.032;8.310;2023-05-29T04:45:19;11.38;;;6.03;;
46084;SDS011;31823;47.032;8.310;2023-05-29T04:47:45;11.70;;;5.90;;
46084;SDS011;31823;47.032;8.310;2023-05-29T04:50:11;9.90;;;6.40;;
46084;SDS011;31823;47.032;8.310;2023-05-29T04:52:37;8.70;;;5.93;;
46084;SDS011;31823;47.032;8.310;2023-05-29T04:55:03;15.02;;;6.18;;
46084;SDS011;31823;47.032;8.310;2023-05-29T04:57:29;10.93;;;6.82;;
46084;SDS011;31823;47.032;8.310;2023-05-29T04:59:55;12.55;;;6.32;;
46084;SDS011;31823;47.032;8.310;2023-05-29T05:02:21;12.50;;;6.10;;
46084;SDS011;31823;47.032;8.310;2023-05-29T05:04:46;18.10;;;7.53;;
46084;SDS011;31823;47.032;8.310;2023-05-29T05:07:12;15.45;;;6.28;;
46084;SDS011;31823;47.032;8.310;2023-05-29T05:09:38;13.00;;;6.30;;
46084;SDS011;31823;47.032;8.310;2023-05-29T05:12:03;15.57;;;6.65;;
46084;SDS011;31823;47.032;8.310;2023-05-29T05:14:30;13.60;;;6.43;;
46084;SDS011;31823;47.032;8.310;2023-05-29T05:16:56;12.07;;;6.60;;
46084;SDS011;31823;47.032;8.310;2023-05-29T05:19:21;12.90;;;6.40;;
46084;SDS011;31823;47.032;8.310;2023-05-29T05:21:47;12.57;;;7.45;;
46084;SDS011;31823;47.032;8.310;2023-05-29T05:24:12;10.90;;;6.88;;
46084;SDS011;31823;47.032;8.310;2023-05-29T05:26:38;16.60;;;8.10;;
46084;SDS011;31823;47.032;8.310;2023-05-29T05:29:03;13.43;;;6.97;;
46084;SDS011;31823;47.032;8.310;2023-05-29T05:31:29;16.27;;;6.72;;
46084;SDS011;31823;47.032;8.310;2023-05-29T05:33:55;13.27;;;6.93;;
46084;SDS011;31823;47.032;8.310;2023-05-29T05:36:20;11.45;;;6.57;;
46084;SDS011;31823;47.032;8.310;2023-05-29T05:38:46;12.45;;;6.75;;
46084;SDS011;31823;47.032;8.310;2023-05-29T05:41:11;12.73;;;6.40;;
46084;SDS011;31823;47.032;8.310;2023-05-29T05:43:37;11.00;;;6.57;;
46084;SDS011;31823;47.032;8.310;2023-05-29T05:46:02;13.45;;;7.50;;
46084;SDS011;31823;47.032;8.310;2023-05-29T05:48:28;10.80;;;6.32;;
46084;SDS011;31823;47.032;8.310;2023-05-29T05:50:53;11.23;;;6.85;;
46084;SDS011;31823;47.032;8.310;2023-05-29T05:53:19;13.70;;;7.25;;
46084;SDS011;31823;47.032;8.310;2023-05-29T05:55:46;16.05;;;7.10;;
46084;SDS011;31823;47.032;8.310;2023-05-29T05:58:11;12.98;;;6.57;;
46084;SDS011;31823;47.032;8.310;2023-05-29T06:00:37;9.40;;;6.85;;
46084;SDS011;31823;47.032;8.310;2023-05-29T06:03:04;9.55;;;6.65;;
46084;SDS011;31823;47.032;8.310;2023-05-29T06:05:29;10.32;;;6.07;;
46084;SDS011;31823;47.032;8.310;2023-05-29T06:07:55;10.43;;;6.50;;
46084;SDS011;31823;47.032;8.310;2023-05-29T06:10:21;13.52;;;7.22;;
46084;SDS011;31823;47.032;8.310;2023-05-29T06:12:46;11.35;;;6.65;;
46084;SDS011;31823;47.032;8.310;2023-05-29T06:15:12;12.70;;;6.53;;
46084;SDS011;31823;47.032;8.310;2023-05-29T06:17:38;9.90;;;6.43;;
46084;SDS011;31823;47.032;8.310;2023-05-29T06:20:04;12.10;;;7.32;;
46084;SDS011;31823;47.032;8.310;2023-05-29T06:22:35;10.45;;;6.32;;
46084;SDS011;31823;47.032;8.310;2023-05-29T06:25:01;15.57;;;7.90;;
46084;SDS011;31823;47.032;8.310;2023-05-29T06:27:26;11.85;;;6.63;;
46084;SDS011;31823;47.032;8.310;2023-05-29T06:29:52;12.65;;;6.88;;
46084;SDS011;31823;47.032;8.310;2023-05-29T06:32:17;11.80;;;6.32;;
46084;SDS011;31823;47.032;8.310;2023-05-29T06:34:43;10.38;;;6.70;;
46084;SDS011;31823;47.032;8.310;2023-05-29T06:37:08;14.82;;;6.68;;
46084;SDS011;31823;47.032;8.310;2023-05-29T06:39:34;12.07;;;6.43;;
46084;SDS011;31823;47.032;8.310;2023-05-29T06:42:00;10.48;;;6.35;;
46084;SDS011;31823;47.032;8.310;2023-05-29T06:44:26;10.13;;;6.72;;
46084;SDS011;31823;47.032;8.310;2023-05-29T06:46:52;15.05;;;7.07;;
46084;SDS011;31823;47.032;8.310;2023-05-29T06:49:17;11.80;;;6.80;;
46084;SDS011;31823;47.032;8.310;2023-05-29T06:51:44;9.38;;;6.30;;
46084;SDS011;31823;47.032;8.310;2023-05-29T06:54:09;14.85;;;7.30;;
46084;SDS011;31823;47.032;8.310;2023-05-29T06:56:35;15.45;;;8.73;;
46084;SDS011;31823;47.032;8.310;2023-05-29T06:59:01;11.05;;;6.63;;
46084;SDS011;31823;47.032;8.310;2023-05-29T07:04:23;13.57;;;6.25;;
46084;SDS011;31823;47.032;8.310;2023-05-29T07:06:48;9.93;;;6.55;;
46084;SDS011;31823;47.032;8.310;2023-05-29T07:09:14;12.68;;;6.70;;
46084;SDS011;31823;47.032;8.310;2023-05-29T07:11:39;13.50;;;6.55;;
46084;SDS011;31823;47.032;8.310;2023-05-29T07:14:05;11.85;;;7.03;;
46084;SDS011;31823;47.032;8.310;2023-05-29T07:16:31;18.55;;;6.45;;
46084;SDS011;31823;47.032;8.310;2023-05-29T07:18:57;13.93;;;8.05;;
46084;SDS011;31823;47.032;8.310;2023-05-29T07:21:22;13.82;;;7.32;;
46084;SDS011;31823;47.032;8.310;2023-05-29T07:23:48;13.20;;;7.10;;
46084;SDS011;31823;47.032;8.310;2023-05-29T07:26:14;9.20;;;6.18;;
46084;SDS011;31823;47.032;8.310;2023-05-29T07:28:39;11.05;;;6.88;;
46084;SDS011;31823;47.032;8.310;2023-05-29T07:31:05;13.57;;;7.80;;
46084;SDS011;31823;47.032;8.310;2023-05-29T07:33:30;10.95;;;7.00;;
46084;SDS011;31823;47.032;8.310;2023-05-29T07:35:56;12.48;;;6.75;;
46084;SDS011;31823;47.032;8.310;2023-05-29T07:38:21;15.38;;;7.30;;
46084;SDS011;31823;47.032;8.310;2023-05-29T07:40:47;12.15;;;7.20;;
46084;SDS011;31823;47.032;8.310;2023-05-29T07:43:12;10.90;;;6.88;;
46084;SDS011;31823;47.032;8.310;2023-05-29T07:45:38;11.32;;;6.50;;
46084;SDS011;31823;47.032;8.310;2023-05-29T07:48:04;11.38;;;6.63;;
46084;SDS011;31823;47.032;8.310;2023-05-29T07:50:30;12.85;;;7.50;;
46084;SDS011;31823;47.032;8.310;2023-05-29T07:52:55;14.90;;;6.82;;
46084;SDS011;31823;47.032;8.310;2023-05-29T07:55:21;10.98;;;6.07;;
46084;SDS011;31823;47.032;8.310;2023-05-29T07:57:46;12.18;;;6.65;;
46084;SDS011;31823;47.032;8.310;2023-05-29T08:00:13;11.38;;;6.68;;
46084;SDS011;31823;47.032;8.310;2023-05-29T08:02:40;11.90;;;7.10;;
46084;SDS011;31823;47.032;8.310;2023-05-29T08:05:07;11.38;;;6.63;;
46084;SDS011;31823;47.032;8.310;2023-05-29T08:07:34;13.27;;;6.85;;
46084;SDS011;31823;47.032;8.310;2023-05-29T08:10:00;11.18;;;7.43;;
46084;SDS011;31823;47.032;8.310;2023-05-29T08:12:25;10.32;;;6.60;;
46084;SDS011;31823;47.032;8.310;2023-05-29T08:14:51;13.85;;;7.20;;
46084;SDS011;31823;47.032;8.310;2023-05-29T08:17:16;13.15;;;6.53;;
46084;SDS011;31823;47.032;8.310;2023-05-29T08:19:42;12.38;;;6.68;;
46084;SDS011;31823;47.032;8.310;2023-05-29T08:22:11;11.48;;;6.90;;
46084;SDS011;31823;47.032;8.310;2023-05-29T08:24:38;11.73;;;7.05;;
46084;SDS011;31823;47.032;8.310;2023-05-29T08:27:04;11.27;;;7.10;;
46084;SDS011;31823;47.032;8.310;2023-05-29T08:29:30;12.80;;;6.55;;
46084;SDS011;31823;47.032;8.310;2023-05-29T08:31:55;10.85;;;6.60;;
46084;SDS011;31823;47.032;8.310;2023-05-29T08:34:21;10.52;;;6.97;;
46084;SDS011;31823;47.032;8.310;2023-05-29T08:36:47;8.82;;;6.50;;
46084;SDS011;31823;47.032;8.310;2023-05-29T08:39:13;10.90;;;6.80;;
46084;SDS011;31823;47.032;8.310;2023-05-29T08:44:21;12.68;;;6.25;;
46084;SDS011;31823;47.032;8.310;2023-05-29T08:46:49;12.52;;;6.68;;
46084;SDS011;31823;47.032;8.310;2023-05-29T08:49:19;13.70;;;6.97;;
46084;SDS011;31823;47.032;8.310;2023-05-29T08:51:47;8.98;;;6.65;;
46084;SDS011;31823;47.032;8.310;2023-05-29T08:54:18;13.18;;;6.68;;
46084;SDS011;31823;47.032;8.310;2023-05-29T08:56:44;11.82;;;6.68;;
46084;SDS011;31823;47.032;8.310;2023-05-29T08:59:10;10.95;;;6.50;;
46084;SDS011;31823;47.032;8.310;2023-05-29T09:01:36;11.98;;;7.45;;
46084;SDS011;31823;47.032;8.310;2023-05-29T09:04:03;12.05;;;6.93;;
46084;SDS011;31823;47.032;8.310;2023-05-29T09:06:29;14.00;;;7.57;;
46084;SDS011;31823;47.032;8.310;2023-05-29T09:08:55;12.93;;;7.70;;
46084;SDS011;31823;47.032;8.310;2023-05-29T09:11:22;11.80;;;6.97;;
46084;SDS011;31823;47.032;8.310;2023-05-29T09:13:48;11.15;;;6.90;;
46084;SDS011;31823;47.032;8.310;2023-05-29T09:16:16;11.40;;;6.50;;
46084;SDS011;31823;47.032;8.310;2023-05-29T09:18:42;14.68;;;7.13;;
46084;SDS011;31823;47.032;8.310;2023-05-29T09:21:13;12.38;;;6.82;;
46084;SDS011;31823;47.032;8.310;2023-05-29T09:23:54;11.70;;;6.28;;
46084;SDS011;31823;47.032;8.310;2023-05-29T09:26:21;12.02;;;5.95;;
46084;SDS011;31823;47.032;8.310;2023-05-29T09:28:48;12.77;;;6.88;;
46084;SDS011;31823;47.032;8.310;2023-05-29T09:31:14;13.77;;;8.02;;
46084;SDS011;31823;47.032;8.310;2023-05-29T09:33:48;12.57;;;6.82;;
46084;SDS011;31823;47.032;8.310;2023-05-29T09:36:23;12.85;;;6.35;;
46084;SDS011;31823;47.032;8.310;2023-05-29T09:38:49;10.07;;;6.63;;
46084;SDS011;31823;47.032;8.310;2023-05-29T09:41:22;10.35;;;6.88;;
46084;SDS011;31823;47.032;8.310;2023-05-29T09:43:49;14.27;;;6.93;;
46084;SDS011;31823;47.032;8.310;2023-05-29T09:46:15;11.95;;;6.88;;
46084;SDS011;31823;47.032;8.310;2023-05-29T09:48:45;13.23;;;6.80;;
46084;SDS011;31823;47.032;8.310;2023-05-29T09:51:22;13.32;;;6.72;;
46084;SDS011;31823;47.032;8.310;2023-05-29T09:53:49;11.25;;;6.65;;
46084;SDS011;31823;47.032;8.310;2023-05-29T09:56:16;11.27;;;7.15;;
46084;SDS011;31823;47.032;8.310;2023-05-29T09:58:42;14.02;;;7.13;;
46084;SDS011;31823;47.032;8.310;2023-05-29T10:01:12;12.60;;;6.68;;
46084;SDS011;31823;47.032;8.310;2023-05-29T10:03:40;12.70;;;7.13;;
46084;SDS011;31823;47.032;8.310;2023-05-29T10:06:07;14.57;;;7.32;;
46084;SDS011;31823;47.032;8.310;2023-05-29T10:08:37;9.90;;;6.20;;
46084;SDS011;31823;47.032;8.310;2023-05-29T10:11:07;9.73;;;6.25;;
46084;SDS011;31823;47.032;8.310;2023-05-29T10:13:40;11.23;;;6.88;;
46084;SDS011;31823;47.032;8.310;2023-05-29T10:16:13;11.93;;;7.25;;
46084;SDS011;31823;47.032;8.310;2023-05-29T10:18:39;9.57;;;6.68;;
46084;SDS011;31823;47.032;8.310;2023-05-29T10:21:11;11.57;;;7.38;;
46084;SDS011;31823;47.032;8.310;2023-05-29T10:23:37;13.93;;;7.55;;
46084;SDS011;31823;47.032;8.310;2023-05-29T10:26:21;9.45;;;6.13;;
46084;SDS011;31823;47.032;8.310;2023-05-29T10:28:50;12.23;;;6.63;;
46084;SDS011;31823;47.032;8.310;2023-05-29T10:31:19;8.65;;;5.53;;
46084;SDS011;31823;47.032;8.310;2023-05-29T10:36:30;11.40;;;6.80;;
46084;SDS011;31823;47.032;8.310;2023-05-29T10:39:03;14.93;;;6.30;;
46084;SDS011;31823;47.032;8.310;2023-05-29T10:41:30;12.88;;;6.22;;
46084;SDS011;31823;47.032;8.310;2023-05-29T10:43:58;11.20;;;6.22;;
46084;SDS011;31823;47.032;8.310;2023-05-29T10:49:19;10.02;;;6.72;;
46084;SDS011;31823;47.032;8.310;2023-05-29T10:51:46;9.70;;;6.55;;
46084;SDS011;31823;47.032;8.310;2023-05-29T10:54:13;10.00;;;6.07;;
46084;SDS011;31823;47.032;8.310;2023-05-29T10:56:44;9.05;;;5.93;;
46084;SDS011;31823;47.032;8.310;2023-05-29T10:59:18;9.15;;;5.55;;
46084;SDS011;31823;47.032;8.310;2023-05-29T11:01:43;11.23;;;6.15;;
46084;SDS011;31823;47.032;8.310;2023-05-29T11:06:47;7.43;;;5.03;;
46084;SDS011;31823;47.032;8.310;2023-05-29T11:14:46;10.07;;;5.90;;
46084;SDS011;31823;47.032;8.310;2023-05-29T11:19:57;11.35;;;5.70;;
46084;SDS011;31823;47.032;8.310;2023-05-29T11:22:30;7.60;;;5.72;;
46084;SDS011;31823;47.032;8.310;2023-05-29T11:25:14;9.07;;;5.43;;
46084;SDS011;31823;47.032;8.310;2023-05-29T11:27:41;10.30;;;4.85;;
46084;SDS011;31823;47.032;8.310;2023-05-29T11:30:08;7.50;;;5.03;;
46084;SDS011;31823;47.032;8.310;2023-05-29T11:32:34;5.68;;;4.78;;
46084;SDS011;31823;47.032;8.310;2023-05-29T11:35:07;9.73;;;5.43;;
46084;SDS011;31823;47.032;8.310;2023-05-29T11:37:34;8.18;;;5.18;;
46084;SDS011;31823;47.032;8.310;2023-05-29T11:40:02;7.10;;;5.13;;
46084;SDS011;31823;47.032;8.310;2023-05-29T11:42:30;7.45;;;5.00;;
46084;SDS011;31823;47.032;8.310;2023-05-29T11:45:09;7.72;;;4.95;;
46084;SDS011;31823;47.032;8.310;2023-05-29T11:47:58;10.13;;;5.55;;
46084;SDS011;31823;47.032;8.310;2023-05-29T11:50:25;6.15;;;4.35;;
46084;SDS011;31823;47.032;8.310;2023-05-29T11:52:52;6.75;;;4.95;;
46084;SDS011;31823;47.032;8.310;2023-05-29T11:55:18;11.57;;;4.90;;
46084;SDS011;31823;47.032;8.310;2023-05-29T11:57:45;6.90;;;4.80;;
46084;SDS011;31823;47.032;8.310;2023-05-29T12:00:12;5.50;;;4.70;;
46084;SDS011;31823;47.032;8.310;2023-05-29T12:02:39;9.60;;;5.55;;
46084;SDS011;31823;47.032;8.310;2023-05-29T12:05:07;6.28;;;5.03;;
46084;SDS011;31823;47.032;8.310;2023-05-29T12:07:34;7.22;;;4.95;;
46084;SDS011;31823;47.032;8.310;2023-05-29T12:10:12;8.77;;;5.38;;
46084;SDS011;31823;47.032;8.310;2023-05-29T12:12:40;7.22;;;4.68;;
46084;SDS011;31823;47.032;8.310;2023-05-29T12:15:08;7.88;;;4.93;;
46084;SDS011;31823;47.032;8.310;2023-05-29T12:17:34;5.65;;;4.50;;
46084;SDS011;31823;47.032;8.310;2023-05-29T12:20:01;6.82;;;4.35;;
46084;SDS011;31823;47.032;8.310;2023-05-29T12:22:32;7.53;;;5.75;;
46084;SDS011;31823;47.032;8.310;2023-05-29T12:25:11;5.35;;;4.57;;
46084;SDS011;31823;47.032;8.310;2023-05-29T12:27:38;6.47;;;4.47;;
46084;SDS011;31823;47.032;8.310;2023-05-29T12:30:11;8.52;;;5.10;;
46084;SDS011;31823;47.032;8.310;2023-05-29T12:32:46;8.40;;;5.03;;
46084;SDS011;31823;47.032;8.310;2023-05-29T12:37:42;9.77;;;5.97;;
46084;SDS011;31823;47.032;8.310;2023-05-29T12:40:29;9.32;;;4.93;;
46084;SDS011;31823;47.032;8.310;2023-05-29T12:43:03;6.63;;;5.22;;
46084;SDS011;31823;47.032;8.310;2023-05-29T12:45:31;6.63;;;4.63;;
46084;SDS011;31823;47.032;8.310;2023-05-29T12:47:59;8.73;;;5.35;;
46084;SDS011;31823;47.032;8.310;2023-05-29T12:50:29;7.50;;;4.57;;
46084;SDS011;31823;47.032;8.310;2023-05-29T12:55:32;6.03;;;4.43;;
46084;SDS011;31823;47.032;8.310;2023-05-29T12:58:06;7.53;;;4.70;;
46084;SDS011;31823;47.032;8.310;2023-05-29T13:00:36;6.85;;;4.95;;
46084;SDS011;31823;47.032;8.310;2023-05-29T13:03:03;7.55;;;5.35;;
46084;SDS011;31823;47.032;8.310;2023-05-29T13:05:29;8.48;;;5.28;;
46084;SDS011;31823;47.032;8.310;2023-05-29T13:07:55;9.63;;;5.57;;
46084;SDS011;31823;47.032;8.310;2023-05-29T13:10:21;7.75;;;5.30;;
46084;SDS011;31823;47.032;8.310;2023-05-29T13:12:48;6.25;;;5.03;;
46084;SDS011;31823;47.032;8.310;2023-05-29T13:15:18;8.68;;;5.03;;
46084;SDS011;31823;47.032;8.310;2023-05-29T13:17:44;7.68;;;5.57;;
46084;SDS011;31823;47.032;8.310;2023-05-29T13:20:10;7.10;;;5.25;;
46084;SDS011;31823;47.032;8.310;2023-05-29T13:22:37;7.28;;;4.70;;
46084;SDS011;31823;47.032;8.310;2023-05-29T13:25:03;7.32;;;5.13;;
46084;SDS011;31823;47.032;8.310;2023-05-29T13:27:31;7.63;;;5.40;;
46084;SDS011;31823;47.032;8.310;2023-05-29T13:29:58;6.85;;;4.88;;
46084;SDS011;31823;47.032;8.310;2023-05-29T13:32:24;7.05;;;4.55;;
46084;SDS011;31823;47.032;8.310;2023-05-29T13:34:49;7.07;;;5.07;;
46084;SDS011;31823;47.032;8.310;2023-05-29T13:37:15;10.70;;;5.00;;
46084;SDS011;31823;47.032;8.310;2023-05-29T13:39:41;8.18;;;5.70;;
46084;SDS011;31823;47.032;8.310;2023-05-29T13:42:07;7.15;;;4.75;;
46084;SDS011;31823;47.032;8.310;2023-05-29T13:44:33;8.32;;;4.97;;
46084;SDS011;31823;47.032;8.310;2023-05-29T13:46:59;7.30;;;5.18;;
46084;SDS011;31823;47.032;8.310;2023-05-29T13:49:25;7.18;;;4.72;;
46084;SDS011;31823;47.032;8.310;2023-05-29T13:51:51;8.38;;;4.70;;
46084;SDS011;31823;47.032;8.310;2023-05-29T13:54:17;7.97;;;4.95;;
46084;SDS011;31823;47.032;8.310;2023-05-29T13:56:44;5.20;;;4.15;;
46084;SDS011;31823;47.032;8.310;2023-05-29T13:59:09;6.10;;;4.63;;
46084;SDS011;31823;47.032;8.310;2023-05-29T14:01:35;7.57;;;5.22;;
46084;SDS011;31823;47.032;8.310;2023-05-29T14:04:01;11.18;;;5.32;;
46084;SDS011;31823;47.032;8.310;2023-05-29T14:06:26;7.30;;;4.97;;
46084;SDS011;31823;47.032;8.310;2023-05-29T14:08:52;7.50;;;4.80;;
46084;SDS011;31823;47.032;8.310;2023-05-29T14:11:18;8.80;;;5.25;;
46084;SDS011;31823;47.032;8.310;2023-05-29T14:13:44;10.07;;;5.57;;
46084;SDS011;31823;47.032;8.310;2023-05-29T14:16:10;10.48;;;5.25;;
46084;SDS011;31823;47.032;8.310;2023-05-29T14:18:36;7.22;;;4.60;;
46084;SDS011;31823;47.032;8.310;2023-05-29T14:21:01;8.82;;;5.18;;
46084;SDS011;31823;47.032;8.310;2023-05-29T14:23:27;6.80;;;5.07;;
46084;SDS011;31823;47.032;8.310;2023-05-29T14:25:53;8.73;;;4.68;;
46084;SDS011;31823;47.032;8.310;2023-05-29T14:28:18;10.32;;;4.82;;
46084;SDS011;31823;47.032;8.310;2023-05-29T14:30:44;7.00;;;4.93;;
46084;SDS011;31823;47.032;8.310;2023-05-29T14:33:10;7.45;;;5.38;;
46084;SDS011;31823;47.032;8.310;2023-05-29T14:35:35;8.25;;;4.95;;
46084;SDS011;31823;47.032;8.310;2023-05-29T14:38:01;8.50;;;5.25;;
46084;SDS011;31823;47.032;8.310;2023-05-29T14:40:27;9.23;;;5.30;;
46084;SDS011;31823;47.032;8.310;2023-05-29T14:42:52;7.75;;;5.20;;
46084;SDS011;31823;47.032;8.310;2023-05-29T14:45:18;8.30;;;5.30;;
46084;SDS011;31823;47.032;8.310;2023-05-29T14:47:44;8.35;;;5.00;;
46084;SDS011;31823;47.032;8.310;2023-05-29T14:50:10;8.65;;;4.75;;
46084;SDS011;31823;47.032;8.310;2023-05-29T14:52:36;8.50;;;4.78;;
46084;SDS011;31823;47.032;8.310;2023-05-29T14:55:03;9.50;;;5.50;;
46084;SDS011;31823;47.032;8.310;2023-05-29T14:57:29;6.43;;;4.70;;
46084;SDS011;31823;47.032;8.310;2023-05-29T14:59:58;9.23;;;4.65;;
46084;SDS011;31823;47.032;8.310;2023-05-29T15:02:24;7.72;;;5.13;;
46084;SDS011;31823;47.032;8.310;2023-05-29T15:04:49;7.30;;;5.00;;
46084;SDS011;31823;47.032;8.310;2023-05-29T15:07:16;9.55;;;5.22;;
46084;SDS011;31823;47.032;8.310;2023-05-29T15:09:42;7.22;;;4.47;;
46084;SDS011;31823;47.032;8.310;2023-05-29T15:12:07;9.32;;;5.45;;
46084;SDS011;31823;47.032;8.310;2023-05-29T15:14:33;7.53;;;5.13;;
46084;SDS011;31823;47.032;8.310;2023-05-29T15:16:59;6.10;;;4.47;;
46084;SDS011;31823;47.032;8.310;2023-05-29T15:19:25;7.45;;;5.03;;